sensor_id;sensor_type;location;lat;lon;timestamp;P1;durP1;ratioP1;P2;durP2;ratioP2
56457;SDS011;42360;42.918;12.366;2024-02-14T00:00:10;2.85;;;2.10;;
56457;SDS011;42360;42.918;12.366;2024-02-14T00:02:43;3.67;;;2.25;;
56457;SDS011;42360;42.918;12.366;2024-02-14T00:05:09;2.22;;;1.83;;
56457;SDS011;42360;42.918;12.366;2024-02-14T00:07:38;3.30;;;2.30;;
56457;SDS011;42360;42.918;12.366;2024-02-14T00:10:07;4.55;;;2.30;;
56457;SDS011;42360;42.918;12.366;2024-02-14T00:12:33;4.68;;;2.85;;
56457;SDS011;42360;42.918;12.366;2024-02-14T00:15:00;4.10;;;2.38;;
56457;SDS011;42360;42.918;12.366;2024-02-14T00:17:25;10.73;;;4.70;;
56457;SDS011;42360;42.918;12.366;2024-02-14T00:19:51;12.45;;;6.82;;
56457;SDS011;42360;42.918;12.366;2024-02-14T00:22:16;6.30;;;4.38;;
56457;SDS011;42360;42.918;12.366;2024-02-14T00:24:42;3.05;;;2.53;;
56457;SDS011;42360;42.918;12.366;2024-02-14T00:27:08;3.17;;;2.20;;
56457;SDS011;42360;42.918;12.366;2024-02-14T00:29:33;4.03;;;2.17;;
56457;SDS011;42360;42.918;12.366;2024-02-14T00:31:59;3.35;;;2.50;;
56457;SDS011;42360;42.918;12.366;2024-02-14T00:34:25;6.35;;;3.20;;
56457;SDS011;42360;42.918;12.366;2024-02-14T00:36:50;4.85;;;3.47;;
56457;SDS011;42360;42.918;12.366;2024-02-14T00:39:16;3.75;;;2.97;;
56457;SDS011;42360;42.918;12.366;2024-02-14T00:41:41;5.53;;;3.20;;
56457;SDS011;42360;42.918;12.366;2024-02-14T00:44:07;4.50;;;3.00;;
56457;SDS011;42360;42.918;12.366;2024-02-14T00:46:32;3.92;;;3.13;;
56457;SDS011;42360;42.918;12.366;2024-02-14T00:48:58;3.72;;;2.63;;
56457;SDS011;42360;42.918;12.366;2024-02-14T00:51:24;5.20;;;2.92;;
56457;SDS011;42360;42.918;12.366;2024-02-14T00:53:50;4.97;;;2.80;;
56457;SDS011;42360;42.918;12.366;2024-02-14T00:56:16;4.10;;;3.25;;
56457;SDS011;42360;42.918;12.366;2024-02-14T00:58:43;4.20;;;2.83;;
56457;SDS011;42360;42.918;12.366;2024-02-14T01:01:08;4.40;;;3.10;;
56457;SDS011;42360;42.918;12.366;2024-02-14T01:03:34;5.03;;;3.30;;
56457;SDS011;42360;42.918;12.366;2024-02-14T01:05:59;3.25;;;2.92;;
56457;SDS011;42360;42.918;12.366;2024-02-14T01:08:24;3.38;;;2.55;;
56457;SDS011;42360;42.918;12.366;2024-02-14T01:10:50;3.53;;;2.35;;
56457;SDS011;42360;42.918;12.366;2024-02-14T01:13:17;4.03;;;2.25;;
56457;SDS011;42360;42.918;12.366;2024-02-14T01:15:43;3.92;;;3.00;;
56457;SDS011;42360;42.918;12.366;2024-02-14T01:18:08;3.92;;;2.90;;
56457;SDS011;42360;42.918;12.366;2024-02-14T01:20:35;3.65;;;2.70;;
56457;SDS011;42360;42.918;12.366;2024-02-14T01:23:00;3.45;;;2.83;;
56457;SDS011;42360;42.918;12.366;2024-02-14T01:25:26;5.72;;;3.13;;
56457;SDS011;42360;42.918;12.366;2024-02-14T01:27:51;6.85;;;3.88;;
56457;SDS011;42360;42.918;12.366;2024-02-14T01:30:17;3.33;;;2.40;;
56457;SDS011;42360;42.918;12.366;2024-02-14T01:32:43;2.78;;;2.58;;
56457;SDS011;42360;42.918;12.366;2024-02-14T01:35:09;3.55;;;2.80;;
56457;SDS011;42360;42.918;12.366;2024-02-14T01:37:34;2.80;;;2.30;;
56457;SDS011;42360;42.918;12.366;2024-02-14T01:40:00;5.70;;;2.55;;
56457;SDS011;42360;42.918;12.366;2024-02-14T01:42:26;4.88;;;2.25;;
56457;SDS011;42360;42.918;12.366;2024-02-14T01:44:52;2.33;;;2.10;;
56457;SDS011;42360;42.918;12.366;2024-02-14T01:47:19;4.75;;;2.55;;
56457;SDS011;42360;42.918;12.366;2024-02-14T01:49:45;3.00;;;2.33;;
56457;SDS011;42360;42.918;12.366;2024-02-14T01:52:12;2.65;;;2.13;;
56457;SDS011;42360;42.918;12.366;2024-02-14T01:54:37;3.83;;;2.10;;
56457;SDS011;42360;42.918;12.366;2024-02-14T01:57:03;2.17;;;2.00;;
56457;SDS011;42360;42.918;12.366;2024-02-14T01:59:30;3.03;;;2.60;;
56457;SDS011;42360;42.918;12.366;2024-02-14T02:01:55;3.70;;;2.72;;
56457;SDS011;42360;42.918;12.366;2024-02-14T02:04:21;3.03;;;2.58;;
56457;SDS011;42360;42.918;12.366;2024-02-14T02:06:46;3.20;;;2.45;;
56457;SDS011;42360;42.918;12.366;2024-02-14T02:09:12;2.97;;;2.20;;
56457;SDS011;42360;42.918;12.366;2024-02-14T02:11:48;3.50;;;2.20;;
56457;SDS011;42360;42.918;12.366;2024-02-14T02:14:14;2.42;;;2.22;;
56457;SDS011;42360;42.918;12.366;2024-02-14T02:16:39;4.05;;;2.85;;
56457;SDS011;42360;42.918;12.366;2024-02-14T02:19:05;3.58;;;2.08;;
56457;SDS011;42360;42.918;12.366;2024-02-14T02:21:33;3.17;;;1.80;;
56457;SDS011;42360;42.918;12.366;2024-02-14T02:24:00;3.33;;;2.10;;
56457;SDS011;42360;42.918;12.366;2024-02-14T02:26:26;2.78;;;2.15;;
56457;SDS011;42360;42.918;12.366;2024-02-14T02:28:51;1.85;;;1.63;;
56457;SDS011;42360;42.918;12.366;2024-02-14T02:31:17;3.08;;;1.92;;
56457;SDS011;42360;42.918;12.366;2024-02-14T02:33:43;4.50;;;2.20;;
56457;SDS011;42360;42.918;12.366;2024-02-14T02:36:08;3.30;;;2.20;;
56457;SDS011;42360;42.918;12.366;2024-02-14T02:38:35;4.05;;;2.53;;
56457;SDS011;42360;42.918;12.366;2024-02-14T02:41:01;2.20;;;1.92;;
56457;SDS011;42360;42.918;12.366;2024-02-14T02:43:29;2.40;;;2.20;;
56457;SDS011;42360;42.918;12.366;2024-02-14T02:45:55;3.85;;;2.00;;
56457;SDS011;42360;42.918;12.366;2024-02-14T02:48:22;2.92;;;2.30;;
56457;SDS011;42360;42.918;12.366;2024-02-14T02:50:48;3.80;;;2.55;;
56457;SDS011;42360;42.918;12.366;2024-02-14T02:53:14;2.88;;;2.40;;
56457;SDS011;42360;42.918;12.366;2024-02-14T02:55:40;4.25;;;2.22;;
56457;SDS011;42360;42.918;12.366;2024-02-14T02:58:06;4.35;;;3.03;;
56457;SDS011;42360;42.918;12.366;2024-02-14T03:00:32;3.55;;;2.83;;
56457;SDS011;42360;42.918;12.366;2024-02-14T03:02:58;5.60;;;2.90;;
56457;SDS011;42360;42.918;12.366;2024-02-14T03:05:23;2.95;;;2.72;;
56457;SDS011;42360;42.918;12.366;2024-02-14T03:07:49;5.28;;;3.35;;
56457;SDS011;42360;42.918;12.366;2024-02-14T03:10:16;5.00;;;2.97;;
56457;SDS011;42360;42.918;12.366;2024-02-14T03:12:48;3.17;;;2.88;;
56457;SDS011;42360;42.918;12.366;2024-02-14T03:15:14;4.15;;;3.15;;
56457;SDS011;42360;42.918;12.366;2024-02-14T03:17:40;5.47;;;3.08;;
56457;SDS011;42360;42.918;12.366;2024-02-14T03:20:07;5.20;;;3.17;;
56457;SDS011;42360;42.918;12.366;2024-02-14T03:22:35;5.28;;;3.70;;
56457;SDS011;42360;42.918;12.366;2024-02-14T03:25:02;6.22;;;2.88;;
56457;SDS011;42360;42.918;12.366;2024-02-14T03:27:27;4.03;;;3.30;;
56457;SDS011;42360;42.918;12.366;2024-02-14T03:29:53;4.07;;;3.17;;
56457;SDS011;42360;42.918;12.366;2024-02-14T03:32:20;4.10;;;2.90;;
56457;SDS011;42360;42.918;12.366;2024-02-14T03:34:45;3.53;;;3.13;;
56457;SDS011;42360;42.918;12.366;2024-02-14T03:37:11;5.78;;;3.90;;
56457;SDS011;42360;42.918;12.366;2024-02-14T03:39:36;4.43;;;3.28;;
56457;SDS011;42360;42.918;12.366;2024-02-14T03:42:02;4.65;;;3.20;;
56457;SDS011;42360;42.918;12.366;2024-02-14T03:44:32;4.63;;;3.33;;
56457;SDS011;42360;42.918;12.366;2024-02-14T03:46:58;4.45;;;3.30;;
56457;SDS011;42360;42.918;12.366;2024-02-14T03:49:25;4.10;;;3.10;;
56457;SDS011;42360;42.918;12.366;2024-02-14T03:51:51;4.63;;;3.15;;
56457;SDS011;42360;42.918;12.366;2024-02-14T03:54:19;3.67;;;2.75;;
56457;SDS011;42360;42.918;12.366;2024-02-14T03:56:45;2.75;;;2.50;;
56457;SDS011;42360;42.918;12.366;2024-02-14T03:59:11;3.00;;;2.70;;
56457;SDS011;42360;42.918;12.366;2024-02-14T04:01:36;3.33;;;2.63;;
56457;SDS011;42360;42.918;12.366;2024-02-14T04:04:01;3.60;;;2.17;;
56457;SDS011;42360;42.918;12.366;2024-02-14T04:06:27;5.38;;;2.72;;
56457;SDS011;42360;42.918;12.366;2024-02-14T04:08:53;2.90;;;2.03;;
56457;SDS011;42360;42.918;12.366;2024-02-14T04:11:18;2.92;;;2.55;;
56457;SDS011;42360;42.918;12.366;2024-02-14T04:13:44;5.32;;;3.58;;
56457;SDS011;42360;42.918;12.366;2024-02-14T04:16:09;3.10;;;2.63;;
56457;SDS011;42360;42.918;12.366;2024-02-14T04:18:35;3.17;;;2.47;;
56457;SDS011;42360;42.918;12.366;2024-02-14T04:21:00;3.50;;;2.67;;
56457;SDS011;42360;42.918;12.366;2024-02-14T04:23:25;3.95;;;2.67;;
56457;SDS011;42360;42.918;12.366;2024-02-14T04:25:51;2.58;;;2.30;;
56457;SDS011;42360;42.918;12.366;2024-02-14T04:28:16;3.83;;;2.78;;
56457;SDS011;42360;42.918;12.366;2024-02-14T04:30:42;3.70;;;3.08;;
56457;SDS011;42360;42.918;12.366;2024-02-14T04:33:08;3.50;;;2.88;;
56457;SDS011;42360;42.918;12.366;2024-02-14T04:35:34;3.88;;;2.85;;
56457;SDS011;42360;42.918;12.366;2024-02-14T04:38:00;3.22;;;2.38;;
56457;SDS011;42360;42.918;12.366;2024-02-14T04:40:25;3.25;;;2.78;;
56457;SDS011;42360;42.918;12.366;2024-02-14T04:42:51;4.15;;;2.90;;
56457;SDS011;42360;42.918;12.366;2024-02-14T04:45:17;6.35;;;3.85;;
56457;SDS011;42360;42.918;12.366;2024-02-14T04:47:42;4.45;;;2.90;;
56457;SDS011;42360;42.918;12.366;2024-02-14T04:50:09;5.30;;;3.55;;
56457;SDS011;42360;42.918;12.366;2024-02-14T04:52:35;4.45;;;3.10;;
56457;SDS011;42360;42.918;12.366;2024-02-14T04:55:00;6.28;;;3.17;;
56457;SDS011;42360;42.918;12.366;2024-02-14T04:57:25;3.47;;;3.17;;
56457;SDS011;42360;42.918;12.366;2024-02-14T04:59:51;4.10;;;3.15;;
56457;SDS011;42360;42.918;12.366;2024-02-14T05:02:16;3.95;;;2.85;;
56457;SDS011;42360;42.918;12.366;2024-02-14T05:04:42;3.58;;;3.08;;
56457;SDS011;42360;42.918;12.366;2024-02-14T05:07:07;3.88;;;2.78;;
56457;SDS011;42360;42.918;12.366;2024-02-14T05:09:33;3.85;;;2.88;;
56457;SDS011;42360;42.918;12.366;2024-02-14T05:11:59;2.58;;;2.22;;
56457;SDS011;42360;42.918;12.366;2024-02-14T05:14:25;3.63;;;3.28;;
56457;SDS011;42360;42.918;12.366;2024-02-14T05:16:51;3.30;;;2.47;;
56457;SDS011;42360;42.918;12.366;2024-02-14T05:19:16;5.50;;;3.00;;
56457;SDS011;42360;42.918;12.366;2024-02-14T05:21:42;3.40;;;2.90;;
56457;SDS011;42360;42.918;12.366;2024-02-14T05:24:07;4.13;;;2.70;;
56457;SDS011;42360;42.918;12.366;2024-02-14T05:26:34;3.72;;;3.03;;
56457;SDS011;42360;42.918;12.366;2024-02-14T05:29:00;3.75;;;2.85;;
56457;SDS011;42360;42.918;12.366;2024-02-14T05:31:28;6.97;;;3.22;;
56457;SDS011;42360;42.918;12.366;2024-02-14T05:34:08;3.00;;;2.65;;
56457;SDS011;42360;42.918;12.366;2024-02-14T05:36:33;3.90;;;2.88;;
56457;SDS011;42360;42.918;12.366;2024-02-14T05:38:58;3.10;;;2.78;;
56457;SDS011;42360;42.918;12.366;2024-02-14T05:41:24;4.57;;;3.05;;
56457;SDS011;42360;42.918;12.366;2024-02-14T05:43:50;4.32;;;2.80;;
56457;SDS011;42360;42.918;12.366;2024-02-14T05:46:16;3.00;;;2.30;;
56457;SDS011;42360;42.918;12.366;2024-02-14T05:48:41;4.22;;;2.80;;
56457;SDS011;42360;42.918;12.366;2024-02-14T05:51:07;2.35;;;2.05;;
56457;SDS011;42360;42.918;12.366;2024-02-14T05:53:32;3.90;;;2.28;;
56457;SDS011;42360;42.918;12.366;2024-02-14T05:55:58;3.70;;;2.95;;
56457;SDS011;42360;42.918;12.366;2024-02-14T05:58:23;3.92;;;3.03;;
56457;SDS011;42360;42.918;12.366;2024-02-14T06:00:52;5.45;;;3.10;;
56457;SDS011;42360;42.918;12.366;2024-02-14T06:03:17;4.10;;;3.10;;
56457;SDS011;42360;42.918;12.366;2024-02-14T06:05:43;4.57;;;3.85;;
56457;SDS011;42360;42.918;12.366;2024-02-14T06:08:08;3.38;;;2.85;;
56457;SDS011;42360;42.918;12.366;2024-02-14T06:10:34;3.13;;;2.55;;
56457;SDS011;42360;42.918;12.366;2024-02-14T06:13:00;3.47;;;2.28;;
56457;SDS011;42360;42.918;12.366;2024-02-14T06:15:25;6.65;;;2.95;;
56457;SDS011;42360;42.918;12.366;2024-02-14T06:17:51;3.42;;;2.67;;
56457;SDS011;42360;42.918;12.366;2024-02-14T06:20:16;3.53;;;2.90;;
56457;SDS011;42360;42.918;12.366;2024-02-14T06:22:42;5.22;;;2.80;;
56457;SDS011;42360;42.918;12.366;2024-02-14T06:25:07;4.82;;;2.97;;
56457;SDS011;42360;42.918;12.366;2024-02-14T06:27:33;3.60;;;2.53;;
56457;SDS011;42360;42.918;12.366;2024-02-14T06:29:59;4.88;;;2.67;;
56457;SDS011;42360;42.918;12.366;2024-02-14T06:32:24;6.30;;;3.28;;
56457;SDS011;42360;42.918;12.366;2024-02-14T06:34:50;4.65;;;3.17;;
56457;SDS011;42360;42.918;12.366;2024-02-14T06:37:16;4.10;;;3.13;;
56457;SDS011;42360;42.918;12.366;2024-02-14T06:39:41;4.20;;;3.60;;
56457;SDS011;42360;42.918;12.366;2024-02-14T06:42:07;3.80;;;2.55;;
56457;SDS011;42360;42.918;12.366;2024-02-14T06:44:33;4.30;;;3.30;;
56457;SDS011;42360;42.918;12.366;2024-02-14T06:46:58;5.05;;;2.45;;
56457;SDS011;42360;42.918;12.366;2024-02-14T06:49:24;3.97;;;3.00;;
56457;SDS011;42360;42.918;12.366;2024-02-14T06:51:49;4.22;;;2.97;;
56457;SDS011;42360;42.918;12.366;2024-02-14T06:54:14;3.30;;;3.00;;
56457;SDS011;42360;42.918;12.366;2024-02-14T06:56:42;4.32;;;3.03;;
56457;SDS011;42360;42.918;12.366;2024-02-14T06:59:07;3.20;;;2.90;;
56457;SDS011;42360;42.918;12.366;2024-02-14T07:01:33;6.20;;;3.03;;
56457;SDS011;42360;42.918;12.366;2024-02-14T07:03:58;5.07;;;2.97;;
56457;SDS011;42360;42.918;12.366;2024-02-14T07:06:24;3.63;;;3.25;;
56457;SDS011;42360;42.918;12.366;2024-02-14T07:08:49;3.85;;;2.85;;
56457;SDS011;42360;42.918;12.366;2024-02-14T07:11:15;4.97;;;3.35;;
56457;SDS011;42360;42.918;12.366;2024-02-14T07:13:41;4.90;;;3.72;;
56457;SDS011;42360;42.918;12.366;2024-02-14T07:16:07;6.32;;;3.13;;
56457;SDS011;42360;42.918;12.366;2024-02-14T07:18:33;4.97;;;3.05;;
56457;SDS011;42360;42.918;12.366;2024-02-14T07:20:59;3.67;;;3.03;;
56457;SDS011;42360;42.918;12.366;2024-02-14T07:23:24;4.30;;;3.05;;
56457;SDS011;42360;42.918;12.366;2024-02-14T07:25:51;3.80;;;2.90;;
56457;SDS011;42360;42.918;12.366;2024-02-14T07:28:17;3.17;;;2.53;;
56457;SDS011;42360;42.918;12.366;2024-02-14T07:30:42;4.40;;;3.15;;
56457;SDS011;42360;42.918;12.366;2024-02-14T07:33:08;4.28;;;2.95;;
56457;SDS011;42360;42.918;12.366;2024-02-14T07:35:34;5.30;;;3.17;;
56457;SDS011;42360;42.918;12.366;2024-02-14T07:38:01;3.58;;;2.80;;
56457;SDS011;42360;42.918;12.366;2024-02-14T07:40:27;6.20;;;3.00;;
56457;SDS011;42360;42.918;12.366;2024-02-14T07:42:56;4.40;;;3.38;;
56457;SDS011;42360;42.918;12.366;2024-02-14T07:45:24;4.82;;;3.60;;
56457;SDS011;42360;42.918;12.366;2024-02-14T07:47:50;4.25;;;3.28;;
56457;SDS011;42360;42.918;12.366;2024-02-14T07:50:15;4.65;;;3.78;;
56457;SDS011;42360;42.918;12.366;2024-02-14T07:52:42;10.07;;;6.15;;
56457;SDS011;42360;42.918;12.366;2024-02-14T07:55:08;5.93;;;3.70;;
56457;SDS011;42360;42.918;12.366;2024-02-14T07:57:37;5.00;;;4.28;;
56457;SDS011;42360;42.918;12.366;2024-02-14T08:00:04;7.82;;;5.22;;
56457;SDS011;42360;42.918;12.366;2024-02-14T08:02:33;76.57;;;26.20;;
56457;SDS011;42360;42.918;12.366;2024-02-14T08:04:59;10.60;;;7.00;;
56457;SDS011;42360;42.918;12.366;2024-02-14T08:07:25;9.10;;;6.13;;
56457;SDS011;42360;42.918;12.366;2024-02-14T08:09:50;5.68;;;4.43;;
56457;SDS011;42360;42.918;12.366;2024-02-14T08:12:16;8.98;;;6.72;;
56457;SDS011;42360;42.918;12.366;2024-02-14T08:14:41;9.18;;;6.70;;
56457;SDS011;42360;42.918;12.366;2024-02-14T08:17:07;8.43;;;6.65;;
56457;SDS011;42360;42.918;12.366;2024-02-14T08:19:32;7.38;;;6.55;;
56457;SDS011;42360;42.918;12.366;2024-02-14T08:21:58;10.00;;;7.07;;
56457;SDS011;42360;42.918;12.366;2024-02-14T08:24:25;11.57;;;6.90;;
56457;SDS011;42360;42.918;12.366;2024-02-14T08:26:51;12.65;;;8.35;;
56457;SDS011;42360;42.918;12.366;2024-02-14T08:29:16;12.65;;;9.93;;
56457;SDS011;42360;42.918;12.366;2024-02-14T08:31:43;10.30;;;6.80;;
56457;SDS011;42360;42.918;12.366;2024-02-14T08:34:09;8.75;;;7.18;;
56457;SDS011;42360;42.918;12.366;2024-02-14T08:36:34;15.63;;;9.15;;
56457;SDS011;42360;42.918;12.366;2024-02-14T08:39:06;8.77;;;7.40;;
56457;SDS011;42360;42.918;12.366;2024-02-14T08:41:37;8.55;;;6.38;;
56457;SDS011;42360;42.918;12.366;2024-02-14T08:44:04;9.57;;;5.63;;
56457;SDS011;42360;42.918;12.366;2024-02-14T08:46:30;11.60;;;5.57;;
56457;SDS011;42360;42.918;12.366;2024-02-14T08:48:55;7.55;;;6.05;;
56457;SDS011;42360;42.918;12.366;2024-02-14T08:51:21;8.07;;;5.60;;
56457;SDS011;42360;42.918;12.366;2024-02-14T08:53:47;7.13;;;5.68;;
56457;SDS011;42360;42.918;12.366;2024-02-14T08:56:13;9.13;;;6.43;;
56457;SDS011;42360;42.918;12.366;2024-02-14T08:58:38;9.52;;;5.80;;
56457;SDS011;42360;42.918;12.366;2024-02-14T09:01:04;8.65;;;6.78;;
56457;SDS011;42360;42.918;12.366;2024-02-14T09:03:30;9.52;;;6.22;;
56457;SDS011;42360;42.918;12.366;2024-02-14T09:05:56;7.03;;;5.63;;
56457;SDS011;42360;42.918;12.366;2024-02-14T09:08:22;10.50;;;6.80;;
56457;SDS011;42360;42.918;12.366;2024-02-14T09:10:49;8.95;;;8.02;;
56457;SDS011;42360;42.918;12.366;2024-02-14T09:13:17;10.23;;;8.73;;
56457;SDS011;42360;42.918;12.366;2024-02-14T09:15:43;14.13;;;10.18;;
56457;SDS011;42360;42.918;12.366;2024-02-14T09:18:09;10.77;;;9.07;;
56457;SDS011;42360;42.918;12.366;2024-02-14T09:20:34;7.25;;;5.78;;
56457;SDS011;42360;42.918;12.366;2024-02-14T09:23:00;7.40;;;6.25;;
56457;SDS011;42360;42.918;12.366;2024-02-14T09:25:25;8.95;;;5.93;;
56457;SDS011;42360;42.918;12.366;2024-02-14T09:27:51;8.90;;;6.30;;
56457;SDS011;42360;42.918;12.366;2024-02-14T09:30:18;7.75;;;5.63;;
56457;SDS011;42360;42.918;12.366;2024-02-14T09:32:44;7.70;;;7.00;;
56457;SDS011;42360;42.918;12.366;2024-02-14T09:35:10;8.85;;;7.93;;
56457;SDS011;42360;42.918;12.366;2024-02-14T09:37:35;7.28;;;6.47;;
56457;SDS011;42360;42.918;12.366;2024-02-14T09:40:03;11.20;;;7.20;;
56457;SDS011;42360;42.918;12.366;2024-02-14T09:42:38;7.57;;;5.50;;
56457;SDS011;42360;42.918;12.366;2024-02-14T09:45:04;7.57;;;5.90;;
56457;SDS011;42360;42.918;12.366;2024-02-14T09:47:32;9.00;;;6.28;;
56457;SDS011;42360;42.918;12.366;2024-02-14T09:49:58;8.32;;;6.72;;
56457;SDS011;42360;42.918;12.366;2024-02-14T09:52:24;8.70;;;6.88;;
56457;SDS011;42360;42.918;12.366;2024-02-14T09:54:51;8.70;;;6.30;;
56457;SDS011;42360;42.918;12.366;2024-02-14T09:57:17;7.63;;;6.72;;
56457;SDS011;42360;42.918;12.366;2024-02-14T09:59:43;9.60;;;6.72;;
56457;SDS011;42360;42.918;12.366;2024-02-14T10:02:09;7.82;;;6.43;;
56457;SDS011;42360;42.918;12.366;2024-02-14T10:04:35;7.88;;;6.35;;
56457;SDS011;42360;42.918;12.366;2024-02-14T10:07:03;9.20;;;6.65;;
56457;SDS011;42360;42.918;12.366;2024-02-14T10:09:30;7.88;;;6.90;;
56457;SDS011;42360;42.918;12.366;2024-02-14T10:11:55;7.03;;;5.40;;
56457;SDS011;42360;42.918;12.366;2024-02-14T10:14:23;8.68;;;6.78;;
56457;SDS011;42360;42.918;12.366;2024-02-14T10:16:48;8.52;;;6.70;;
56457;SDS011;42360;42.918;12.366;2024-02-14T10:19:15;7.40;;;6.10;;
56457;SDS011;42360;42.918;12.366;2024-02-14T10:21:43;7.30;;;6.13;;
56457;SDS011;42360;42.918;12.366;2024-02-14T10:24:09;9.85;;;6.35;;
56457;SDS011;42360;42.918;12.366;2024-02-14T10:26:36;8.75;;;6.75;;
56457;SDS011;42360;42.918;12.366;2024-02-14T10:29:02;8.63;;;5.80;;
56457;SDS011;42360;42.918;12.366;2024-02-14T10:31:28;7.85;;;6.65;;
56457;SDS011;42360;42.918;12.366;2024-02-14T10:33:53;8.95;;;6.72;;
56457;SDS011;42360;42.918;12.366;2024-02-14T10:36:21;8.93;;;6.63;;
56457;SDS011;42360;42.918;12.366;2024-02-14T10:38:47;7.30;;;6.28;;
56457;SDS011;42360;42.918;12.366;2024-02-14T10:41:14;6.65;;;5.80;;
56457;SDS011;42360;42.918;12.366;2024-02-14T10:43:41;7.30;;;5.53;;
56457;SDS011;42360;42.918;12.366;2024-02-14T10:46:08;6.55;;;5.43;;
56457;SDS011;42360;42.918;12.366;2024-02-14T10:48:49;7.18;;;6.25;;
56457;SDS011;42360;42.918;12.366;2024-02-14T10:51:16;7.18;;;5.68;;
56457;SDS011;42360;42.918;12.366;2024-02-14T10:53:43;7.05;;;5.63;;
56457;SDS011;42360;42.918;12.366;2024-02-14T10:56:12;8.85;;;5.85;;
56457;SDS011;42360;42.918;12.366;2024-02-14T10:58:43;9.10;;;6.15;;
56457;SDS011;42360;42.918;12.366;2024-02-14T11:01:11;8.88;;;5.93;;
56457;SDS011;42360;42.918;12.366;2024-02-14T11:03:36;8.27;;;6.80;;
56457;SDS011;42360;42.918;12.366;2024-02-14T11:06:02;10.07;;;7.13;;
56457;SDS011;42360;42.918;12.366;2024-02-14T11:08:29;7.30;;;6.22;;
56457;SDS011;42360;42.918;12.366;2024-02-14T11:10:58;8.48;;;7.13;;
56457;SDS011;42360;42.918;12.366;2024-02-14T11:13:30;10.55;;;8.50;;
56457;SDS011;42360;42.918;12.366;2024-02-14T11:16:00;7.57;;;6.35;;
56457;SDS011;42360;42.918;12.366;2024-02-14T11:18:27;7.85;;;6.68;;
56457;SDS011;42360;42.918;12.366;2024-02-14T11:20:55;8.82;;;7.63;;
56457;SDS011;42360;42.918;12.366;2024-02-14T11:23:22;8.27;;;6.30;;
56457;SDS011;42360;42.918;12.366;2024-02-14T11:25:47;10.43;;;6.35;;
56457;SDS011;42360;42.918;12.366;2024-02-14T11:28:13;8.82;;;6.22;;
56457;SDS011;42360;42.918;12.366;2024-02-14T11:30:40;9.13;;;6.80;;
56457;SDS011;42360;42.918;12.366;2024-02-14T11:33:20;8.95;;;7.78;;
56457;SDS011;42360;42.918;12.366;2024-02-14T11:35:48;7.63;;;6.47;;
56457;SDS011;42360;42.918;12.366;2024-02-14T11:38:16;8.65;;;5.63;;
56457;SDS011;42360;42.918;12.366;2024-02-14T11:40:42;8.45;;;6.43;;
56457;SDS011;42360;42.918;12.366;2024-02-14T11:43:15;8.23;;;6.03;;
56457;SDS011;42360;42.918;12.366;2024-02-14T11:45:42;8.95;;;6.78;;
56457;SDS011;42360;42.918;12.366;2024-02-14T11:48:08;9.15;;;6.32;;
56457;SDS011;42360;42.918;12.366;2024-02-14T11:50:35;8.35;;;6.63;;
56457;SDS011;42360;42.918;12.366;2024-02-14T11:53:01;7.32;;;5.97;;
56457;SDS011;42360;42.918;12.366;2024-02-14T11:55:27;7.75;;;6.35;;
56457;SDS011;42360;42.918;12.366;2024-02-14T11:57:54;7.78;;;6.97;;
56457;SDS011;42360;42.918;12.366;2024-02-14T12:00:20;8.75;;;6.22;;
56457;SDS011;42360;42.918;12.366;2024-02-14T12:02:47;8.02;;;6.22;;
56457;SDS011;42360;42.918;12.366;2024-02-14T12:05:15;7.47;;;6.47;;
56457;SDS011;42360;42.918;12.366;2024-02-14T12:07:40;6.78;;;5.78;;
56457;SDS011;42360;42.918;12.366;2024-02-14T12:10:06;7.20;;;6.05;;
56457;SDS011;42360;42.918;12.366;2024-02-14T12:12:32;5.60;;;5.00;;
56457;SDS011;42360;42.918;12.366;2024-02-14T12:14:58;6.35;;;5.65;;
56457;SDS011;42360;42.918;12.366;2024-02-14T12:17:26;5.90;;;5.03;;
56457;SDS011;42360;42.918;12.366;2024-02-14T12:19:52;6.95;;;5.78;;
56457;SDS011;42360;42.918;12.366;2024-02-14T12:22:18;6.85;;;5.00;;
56457;SDS011;42360;42.918;12.366;2024-02-14T12:24:44;3.58;;;2.97;;
56457;SDS011;42360;42.918;12.366;2024-02-14T12:27:11;2.45;;;1.90;;
56457;SDS011;42360;42.918;12.366;2024-02-14T12:29:36;2.58;;;2.38;;
56457;SDS011;42360;42.918;12.366;2024-02-14T12:32:04;3.30;;;2.70;;
56457;SDS011;42360;42.918;12.366;2024-02-14T12:34:31;1.98;;;1.70;;
56457;SDS011;42360;42.918;12.366;2024-02-14T12:36:57;3.28;;;1.70;;
56457;SDS011;42360;42.918;12.366;2024-02-14T12:39:22;0.85;;;0.82;;
56457;SDS011;42360;42.918;12.366;2024-02-14T12:41:48;1.45;;;1.10;;
56457;SDS011;42360;42.918;12.366;2024-02-14T12:44:13;2.33;;;1.63;;
56457;SDS011;42360;42.918;12.366;2024-02-14T12:46:39;1.75;;;1.65;;
56457;SDS011;42360;42.918;12.366;2024-02-14T12:49:04;2.83;;;1.50;;
56457;SDS011;42360;42.918;12.366;2024-02-14T12:51:30;2.67;;;2.47;;
56457;SDS011;42360;42.918;12.366;2024-02-14T12:53:56;2.72;;;1.90;;
56457;SDS011;42360;42.918;12.366;2024-02-14T12:56:21;2.15;;;1.73;;
56457;SDS011;42360;42.918;12.366;2024-02-14T12:58:46;3.05;;;2.30;;
56457;SDS011;42360;42.918;12.366;2024-02-14T13:01:13;2.20;;;2.00;;
56457;SDS011;42360;42.918;12.366;2024-02-14T13:03:39;2.42;;;1.75;;
56457;SDS011;42360;42.918;12.366;2024-02-14T13:06:05;1.48;;;1.20;;
56457;SDS011;42360;42.918;12.366;2024-02-14T13:08:30;0.82;;;0.82;;
56457;SDS011;42360;42.918;12.366;2024-02-14T13:10:57;2.03;;;1.83;;
56457;SDS011;42360;42.918;12.366;2024-02-14T13:13:23;2.65;;;2.45;;
56457;SDS011;42360;42.918;12.366;2024-02-14T13:15:48;2.75;;;2.10;;
56457;SDS011;42360;42.918;12.366;2024-02-14T13:18:13;3.15;;;2.88;;
56457;SDS011;42360;42.918;12.366;2024-02-14T13:20:39;3.85;;;2.20;;
56457;SDS011;42360;42.918;12.366;2024-02-14T13:23:04;1.80;;;1.70;;
56457;SDS011;42360;42.918;12.366;2024-02-14T13:25:34;1.98;;;1.80;;
56457;SDS011;42360;42.918;12.366;2024-02-14T13:28:01;6.70;;;6.20;;
56457;SDS011;42360;42.918;12.366;2024-02-14T13:30:27;2.88;;;2.67;;
56457;SDS011;42360;42.918;12.366;2024-02-14T13:32:54;1.45;;;1.00;;
56457;SDS011;42360;42.918;12.366;2024-02-14T13:35:20;1.25;;;1.15;;
56457;SDS011;42360;42.918;12.366;2024-02-14T13:37:46;2.50;;;2.30;;
56457;SDS011;42360;42.918;12.366;2024-02-14T13:40:12;2.08;;;1.85;;
56457;SDS011;42360;42.918;12.366;2024-02-14T13:42:37;1.02;;;0.90;;
56457;SDS011;42360;42.918;12.366;2024-02-14T13:45:04;1.27;;;1.10;;
56457;SDS011;42360;42.918;12.366;2024-02-14T13:47:34;1.70;;;1.60;;
56457;SDS011;42360;42.918;12.366;2024-02-14T13:50:01;1.27;;;1.10;;
56457;SDS011;42360;42.918;12.366;2024-02-14T13:52:28;2.03;;;1.83;;
56457;SDS011;42360;42.918;12.366;2024-02-14T13:54:54;1.55;;;1.30;;
56457;SDS011;42360;42.918;12.366;2024-02-14T13:57:19;1.10;;;1.00;;
56457;SDS011;42360;42.918;12.366;2024-02-14T13:59:45;0.90;;;0.88;;
56457;SDS011;42360;42.918;12.366;2024-02-14T14:02:11;1.08;;;0.90;;
56457;SDS011;42360;42.918;12.366;2024-02-14T14:04:37;1.75;;;1.30;;
56457;SDS011;42360;42.918;12.366;2024-02-14T14:07:02;5.95;;;3.65;;
56457;SDS011;42360;42.918;12.366;2024-02-14T14:09:29;2.13;;;1.60;;
56457;SDS011;42360;42.918;12.366;2024-02-14T14:11:57;1.00;;;0.90;;
56457;SDS011;42360;42.918;12.366;2024-02-14T14:14:23;1.10;;;0.95;;
56457;SDS011;42360;42.918;12.366;2024-02-14T14:16:52;1.52;;;0.95;;
56457;SDS011;42360;42.918;12.366;2024-02-14T14:19:17;3.67;;;1.38;;
56457;SDS011;42360;42.918;12.366;2024-02-14T14:21:43;3.00;;;1.98;;
56457;SDS011;42360;42.918;12.366;2024-02-14T14:24:08;1.13;;;1.02;;
56457;SDS011;42360;42.918;12.366;2024-02-14T14:26:34;2.38;;;2.08;;